Jackson, Missouri
Current Conditions -  °F | °C
As of 10:53 PM on Friday 31 Oct 2014 (Local Time) from KCGI Reporting Station
Clear Clear  
Wind Chill: -1°   Ceiling: Unl
Heat Index:   Visibility: 10mi
Dew Point: -5°   Wind: 12mph
Humidity: 55%   Direction: 350°N
Pressure: 30.34"   Gusts: NA
Location:  37.38°N, 89.67°W
Report Text: KCGI 010353Z AUTO 35010KT 10SM CLR 03/M05 A3034 RMK AO2 SLP273 T00331050 TSNO
Loading
Personal Weather Stations






























Interactive Weather Map
Tropical Storm Tracking
New forecast layout! Learn more

10-Day Weather Forecast

Advertisements
Track Severe Weather on mobile